Time;durP1;ratioP1;P1;durP2;ratioP2;P2;SDS_P1;SDS_P2;PMS_P1;PMS_P2;Temp;Humidity;BMP_temperature;BMP_pressure;BME280_temperature;BME280_humidity;BME280_pressure;Samples;Min_cycle;Max_cycle;Signal;HPM_P1;HPM_P2
2022/08/18 00:01:33;;;;;;;9.88;4.82;;;;;;;;;;9945100;28;20103;-70
2022/08/18 00:06:28;;;;;;;9.63;5.65;;;;;;;;;;9954342;28;20494;-70
2022/08/18 00:11:22;;;;;;;12.38;5.95;;;;;;;;;;9947226;28;20050;-69
2022/08/18 00:16:16;;;;;;;10.65;5.13;;;;;;;;;;9963763;28;20039;-70
2022/08/18 00:21:09;;;;;;;13.23;5.35;;;;;;;;;;9961873;28;20098;-70
2022/08/18 00:26:04;;;;;;;11.80;6.10;;;;;;;;;;9943628;28;20505;-68
2022/08/18 00:30:58;;;;;;;6.80;5.32;;;;;;;;;;9965268;28;20053;-69
2022/08/18 00:35:52;;;;;;;8.65;5.30;;;;;;;;;;9963570;28;20405;-68
2022/08/18 00:40:48;;;;;;;9.20;4.78;;;;;;;;;;9947504;28;20102;-69
2022/08/18 00:45:42;;;;;;;8.65;4.93;;;;;;;;;;9938662;28;20051;-69
2022/08/18 00:50:38;;;;;;;20.27;6.32;;;;;;;;;;9948435;28;20054;-68
2022/08/18 00:55:33;;;;;;;10.48;4.78;;;;;;;;;;9951639;28;20391;-68
2022/08/18 01:00:26;;;;;;;8.95;4.57;;;;;;;;;;9948392;28;20055;-69
2022/08/18 01:05:29;;;;;;;9.40;5.18;;;;;;;;;;9951106;28;20050;-68
2022/08/18 01:10:23;;;;;;;12.13;6.15;;;;;;;;;;9936836;28;20047;-68
2022/08/18 01:15:18;;;;;;;8.57;6.13;;;;;;;;;;9950609;28;20057;-68
2022/08/18 01:26:00;;;;;;;8.35;5.40;;;;;;;;;;9925211;28;20101;-68
2022/08/18 01:30:57;;;;;;;6.65;5.32;;;;;;;;;;9935257;28;20051;-68
2022/08/18 01:35:52;;;;;;;10.45;5.68;;;;;;;;;;9950511;28;20137;-68
2022/08/18 01:40:46;;;;;;;11.93;6.90;;;;;;;;;;9962079;28;20070;-69
2022/08/18 01:46:00;;;;;;;10.75;7.75;;;;;;;;;;9945305;28;20057;-68
2022/08/18 01:50:55;;;;;;;11.52;4.78;;;;;;;;;;9962165;28;20051;-68
2022/08/18 01:55:49;;;;;;;7.40;4.40;;;;;;;;;;9950707;28;20416;-69
2022/08/18 02:00:43;;;;;;;9.45;4.95;;;;;;;;;;9955242;28;20476;-68
2022/08/18 02:05:41;;;;;;;8.02;5.00;;;;;;;;;;9965621;28;20050;-69
2022/08/18 02:10:35;;;;;;;;;;;;;;;;;;9965999;28;20058;-68
2022/08/18 02:15:30;;;;;;;13.23;4.78;;;;;;;;;;9949404;28;20336;-68
2022/08/18 02:20:24;;;;;;;6.25;4.40;;;;;;;;;;9962857;28;20420;-68
2022/08/18 02:25:18;;;;;;;5.38;4.45;;;;;;;;;;9966525;28;20078;-67
2022/08/18 02:30:15;;;;;;;12.05;4.32;;;;;;;;;;9979229;28;20059;-67
2022/08/18 02:35:10;;;;;;;6.95;5.10;;;;;;;;;;9971472;28;20135;-68
2022/08/18 02:40:06;;;;;;;11.57;6.30;;;;;;;;;;9956403;28;20066;-69
2022/08/18 02:45:01;;;;;;;10.40;5.38;;;;;;;;;;9955252;28;20085;-68
2022/08/18 02:50:01;;;;;;;7.65;4.60;;;;;;;;;;9956174;28;20047;-68
2022/08/18 02:54:55;;;;;;;9.43;4.53;;;;;;;;;;9955411;28;20059;-68
2022/08/18 02:59:49;;;;;;;7.82;4.45;;;;;;;;;;9955635;28;20087;-70
2022/08/18 03:04:44;;;;;;;9.23;4.00;;;;;;;;;;9954955;28;20098;-69
2022/08/18 03:09:38;;;;;;;8.32;4.93;;;;;;;;;;9955896;28;20131;-68
2022/08/18 03:14:31;;;;;;;12.25;5.63;;;;;;;;;;9954593;28;20053;-69
2022/08/18 03:19:27;;;;;;;6.93;4.97;;;;;;;;;;9954459;28;20086;-69
2022/08/18 03:24:21;;;;;;;7.55;4.22;;;;;;;;;;9955103;28;20051;-69
2022/08/18 03:29:16;;;;;;;11.23;4.88;;;;;;;;;;9954181;28;20478;-69
2022/08/18 03:34:10;;;;;;;8.50;5.40;;;;;;;;;;9953484;28;20058;-69
2022/08/18 03:39:09;;;;;;;6.75;4.13;;;;;;;;;;9954270;28;20050;-67
2022/08/18 03:44:04;;;;;;;11.27;4.93;;;;;;;;;;9941521;28;20117;-68
2022/08/18 03:48:59;;;;;;;12.77;5.82;;;;;;;;;;9954346;28;20197;-68
2022/08/18 03:53:54;;;;;;;19.83;5.60;;;;;;;;;;9953916;28;20054;-68
2022/08/18 03:58:55;;;;;;;14.15;5.72;;;;;;;;;;9953475;28;20109;-69
2022/08/18 04:03:52;;;;;;;13.48;4.82;;;;;;;;;;9953216;28;20054;-69
2022/08/18 04:08:47;;;;;;;7.80;5.10;;;;;;;;;;9953488;28;20490;-70
2022/08/18 04:13:41;;;;;;;13.82;5.00;;;;;;;;;;9953127;28;20078;-69
2022/08/18 04:18:35;;;;;;;11.23;5.55;;;;;;;;;;9952201;28;20066;-69
2022/08/18 04:23:30;;;;;;;10.68;4.97;;;;;;;;;;9953589;28;20086;-69
2022/08/18 04:28:36;;;;;;;13.43;6.53;;;;;;;;;;9952899;28;20073;-69
2022/08/18 04:33:30;;;;;;;14.27;5.95;;;;;;;;;;9952052;28;20142;-69
2022/08/18 04:38:26;;;;;;;19.40;5.78;;;;;;;;;;9952474;28;20126;-69
2022/08/18 04:43:20;;;;;;;12.40;6.45;;;;;;;;;;9944500;28;20069;-69
2022/08/18 04:48:15;;;;;;;13.10;6.25;;;;;;;;;;9940901;28;20129;-68
2022/08/18 04:58:22;;;;;;;12.23;5.88;;;;;;;;;;9945175;28;20050;-69
2022/08/18 05:03:17;;;;;;;12.52;7.15;;;;;;;;;;9951268;28;20078;-69
2022/08/18 05:08:10;;;;;;;16.63;7.80;;;;;;;;;;9949896;28;20050;-69
2022/08/18 05:13:05;;;;;;;10.68;7.45;;;;;;;;;;9950339;28;20080;-69
2022/08/18 05:17:59;;;;;;;13.88;8.27;;;;;;;;;;9950665;28;20057;-69
2022/08/18 05:22:54;;;;;;;11.90;6.88;;;;;;;;;;9950205;28;20050;-69
2022/08/18 05:27:48;;;;;;;10.30;6.95;;;;;;;;;;9950360;28;20501;-69
2022/08/18 05:32:46;;;;;;;10.82;8.02;;;;;;;;;;9944142;28;20095;-69
2022/08/18 05:38:01;;;;;;;14.68;9.00;;;;;;;;;;9945578;28;20421;-69
2022/08/18 05:42:56;;;;;;;14.30;7.47;;;;;;;;;;9944416;28;20055;-69
2022/08/18 05:47:50;;;;;;;24.70;10.77;;;;;;;;;;9949988;28;20093;-69
2022/08/18 05:52:58;;;;;;;10.15;6.80;;;;;;;;;;9950174;28;20050;-68
2022/08/18 05:57:58;;;;;;;17.27;8.07;;;;;;;;;;9949654;28;20383;-66
2022/08/18 06:02:58;;;;;;;12.00;7.40;;;;;;;;;;9944389;28;20109;-68
2022/08/18 06:08:14;;;;;;;8.23;7.20;;;;;;;;;;9943625;28;20047;-67
2022/08/18 06:13:09;;;;;;;18.67;9.35;;;;;;;;;;9929961;28;20065;-70
2022/08/18 06:18:06;;;;;;;12.63;7.97;;;;;;;;;;9922620;28;20057;-69
2022/08/18 06:23:46;;;;;;;9.63;7.05;;;;;;;;;;9940012;28;20059;-69
2022/08/18 06:28:51;;;;;;;12.73;6.97;;;;;;;;;;9894282;28;20085;-67
2022/08/18 06:33:56;;;;;;;17.75;6.95;;;;;;;;;;9943326;28;20352;-68
2022/08/18 06:39:04;;;;;;;12.10;6.78;;;;;;;;;;9933274;28;20417;-65
2022/08/18 06:44:05;;;;;;;10.80;5.70;;;;;;;;;;9921450;28;20050;-61
2022/08/18 06:49:06;;;;;;;9.48;5.20;;;;;;;;;;9942838;28;20137;-60
2022/08/18 06:54:03;;;;;;;12.77;7.45;;;;;;;;;;9943035;28;20054;-61
2022/08/18 06:59:22;;;;;;;10.05;5.40;;;;;;;;;;9947293;28;20126;-61
2022/08/18 07:04:37;;;;;;;10.27;5.28;;;;;;;;;;9938458;28;20073;-60
2022/08/18 07:09:32;;;;;;;9.48;6.30;;;;;;;;;;9927216;28;20059;-61
2022/08/18 07:14:27;;;;;;;7.65;4.93;;;;;;;;;;9950795;28;20126;-58
2022/08/18 07:19:28;;;;;;;13.38;5.40;;;;;;;;;;9952619;28;20046;-61
2022/08/18 07:24:28;;;;;;;10.50;5.18;;;;;;;;;;9951321;28;20049;-60
2022/08/18 07:29:22;;;;;;;12.98;5.60;;;;;;;;;;9950504;28;20133;-60
2022/08/18 07:34:40;;;;;;;9.70;6.15;;;;;;;;;;9956593;28;20050;-61
2022/08/18 07:39:41;;;;;;;11.82;5.90;;;;;;;;;;9952593;28;20054;-62
2022/08/18 07:44:53;;;;;;;18.45;7.78;;;;;;;;;;9948977;28;20063;-61
2022/08/18 07:49:47;;;;;;;15.15;7.15;;;;;;;;;;9944362;28;20046;-61
2022/08/18 07:55:07;;;;;;;12.30;7.30;;;;;;;;;;9944933;28;20051;-61
2022/08/18 08:00:20;;;;;;;9.48;7.72;;;;;;;;;;9948729;28;20055;-61
2022/08/18 08:05:50;;;;;;;12.77;8.07;;;;;;;;;;9968476;28;20047;-61
2022/08/18 08:10:57;;;;;;;15.65;9.50;;;;;;;;;;9964043;28;20068;-61
2022/08/18 08:15:56;;;;;;;13.05;9.45;;;;;;;;;;9949077;28;20117;-61
2022/08/18 08:21:07;;;;;;;17.30;11.13;;;;;;;;;;9947194;28;20473;-61
2022/08/18 08:26:15;;;;;;;17.20;9.60;;;;;;;;;;9950687;28;20085;-61
2022/08/18 08:31:47;;;;;;;16.73;12.07;;;;;;;;;;9945694;28;20062;-61
2022/08/18 08:36:45;;;;;;;14.73;10.98;;;;;;;;;;9950778;28;20141;-62
2022/08/18 08:41:44;;;;;;;14.10;11.77;;;;;;;;;;9948253;28;20054;-61
2022/08/18 08:46:45;;;;;;;12.60;10.10;;;;;;;;;;9948734;28;20298;-62
2022/08/18 08:51:45;;;;;;;49.47;16.13;;;;;;;;;;9924340;28;20055;-63
2022/08/18 08:56:45;;;;;;;19.83;12.68;;;;;;;;;;9933216;28;20102;-64
2022/08/18 09:01:44;;;;;;;19.63;12.27;;;;;;;;;;9947595;28;20058;-64
2022/08/18 09:06:44;;;;;;;16.20;11.98;;;;;;;;;;9947902;28;20124;-64
2022/08/18 09:12:11;;;;;;;14.25;12.20;;;;;;;;;;9949622;28;20059;-65
2022/08/18 09:17:27;;;;;;;17.60;12.55;;;;;;;;;;9933299;28;20473;-64
2022/08/18 09:23:03;;;;;;;20.88;12.13;;;;;;;;;;9946832;28;20417;-66
2022/08/18 09:28:28;;;;;;;11.80;2.58;;;;;;;;;;9946903;28;20105;-69
2022/08/18 09:33:25;;;;;;;4.60;1.90;;;;;;;;;;9918083;28;20466;-69
2022/08/18 09:43:39;;;;;;;12.48;5.15;;;;;;;;;;9943885;28;20062;-69
2022/08/18 09:48:38;;;;;;;5.40;3.78;;;;;;;;;;9949017;28;20109;-69
2022/08/18 09:53:52;;;;;;;5.75;3.20;;;;;;;;;;9948695;28;20058;-69
2022/08/18 09:59:04;;;;;;;3.88;2.15;;;;;;;;;;9943891;28;20046;-68
2022/08/18 10:04:15;;;;;;;6.15;1.50;;;;;;;;;;9947178;28;20053;-68
2022/08/18 10:09:35;;;;;;;3.03;1.40;;;;;;;;;;9939779;28;20482;-68
2022/08/18 10:14:52;;;;;;;2.42;1.60;;;;;;;;;;9926665;28;20077;-67
2022/08/18 10:20:11;;;;;;;4.47;2.05;;;;;;;;;;9924415;28;20058;-67
2022/08/18 10:25:47;;;;;;;3.97;1.58;;;;;;;;;;9946973;28;20482;-68
2022/08/18 10:30:48;;;;;;;5.50;2.17;;;;;;;;;;9925819;28;20138;-68
2022/08/18 10:35:59;;;;;;;1.27;1.17;;;;;;;;;;9942959;28;20109;-68
2022/08/18 10:41:09;;;;;;;1.52;1.00;;;;;;;;;;9947370;28;20059;-68
2022/08/18 10:46:23;;;;;;;2.45;1.42;;;;;;;;;;9944731;28;20410;-68
2022/08/18 10:51:42;;;;;;;3.80;1.60;;;;;;;;;;9954183;28;20145;-66
2022/08/18 10:57:29;;;;;;;4.93;1.52;;;;;;;;;;9960435;28;20046;-67
2022/08/18 11:02:37;;;;;;;4.75;1.70;;;;;;;;;;9899029;28;20046;-66
2022/08/18 11:07:31;;;;;;;2.10;1.67;;;;;;;;;;9965487;28;20059;-68
2022/08/18 11:13:04;;;;;;;5.35;2.25;;;;;;;;;;9963249;28;20042;-67
2022/08/18 11:18:33;;;;;;;4.53;1.45;;;;;;;;;;9965852;28;20046;-67
2022/08/18 11:24:06;;;;;;;8.60;1.20;;;;;;;;;;9951998;28;20047;-67
2022/08/18 11:29:17;;;;;;;4.20;2.28;;;;;;;;;;9944559;28;20074;-67
2022/08/18 11:34:22;;;;;;;1.70;0.90;;;;;;;;;;9938165;28;20050;-67
2022/08/18 11:39:16;;;;;;;0.80;0.80;;;;;;;;;;9947075;28;20117;-66
2022/08/18 11:44:27;;;;;;;3.15;0.90;;;;;;;;;;9941568;28;20421;-66
2022/08/18 11:49:32;;;;;;;5.55;1.30;;;;;;;;;;9931323;28;20567;-67
2022/08/18 11:54:41;;;;;;;1.83;0.80;;;;;;;;;;9950039;28;20438;-68
2022/08/18 11:59:55;;;;;;;0.80;0.70;;;;;;;;;;9958325;28;20050;-68
2022/08/18 12:04:56;;;;;;;;;;;;;;;;;;9951764;28;20081;-67
2022/08/18 12:10:14;;;;;;;5.82;0.68;;;;;;;;;;9939118;28;20394;-67
2022/08/18 12:15:28;;;;;;;0.77;0.50;;;;;;;;;;9960215;28;20728;-66
2022/08/18 12:20:39;;;;;;;1.38;0.68;;;;;;;;;;9961157;28;20046;-67
2022/08/18 12:25:33;;;;;;;1.23;0.40;;;;;;;;;;9951915;28;20110;-67
2022/08/18 12:30:33;;;;;;;0.93;0.30;;;;;;;;;;9919728;28;20467;-67
2022/08/18 12:35:28;;;;;;;1.95;0.40;;;;;;;;;;9954706;28;20069;-68
2022/08/18 12:40:22;;;;;;;2.63;0.40;;;;;;;;;;9949649;28;20078;-65
2022/08/18 12:45:18;;;;;;;0.35;0.30;;;;;;;;;;9956722;28;20101;-66
2022/08/18 12:50:12;;;;;;;1.02;0.30;;;;;;;;;;9957482;28;20062;-65
2022/08/18 12:55:09;;;;;;;1.85;0.60;;;;;;;;;;9936096;28;20105;-67
2022/08/18 13:00:14;;;;;;;0.22;0.20;;;;;;;;;;9938740;28;20422;-64
2022/08/18 13:05:11;;;;;;;1.20;0.28;;;;;;;;;;9944119;28;20183;-66
2022/08/18 13:10:07;;;;;;;2.53;0.20;;;;;;;;;;9942905;28;20046;-63
2022/08/18 13:15:22;;;;;;;1.10;0.40;;;;;;;;;;9938737;28;20428;-63
2022/08/18 13:20:19;;;;;;;0.82;0.40;;;;;;;;;;9940801;28;20051;-61
2022/08/18 13:25:14;;;;;;;0.22;0.22;;;;;;;;;;9939881;28;20047;-62
2022/08/18 13:30:25;;;;;;;4.07;0.55;;;;;;;;;;9934810;28;20446;-62
2022/08/18 13:35:24;;;;;;;0.43;0.40;;;;;;;;;;9926096;28;20073;-63
2022/08/18 13:40:21;;;;;;;1.58;0.55;;;;;;;;;;9939995;28;20057;-65
2022/08/18 13:45:21;;;;;;;2.05;0.70;;;;;;;;;;9932928;28;20505;-65
2022/08/18 13:50:19;;;;;;;0.90;0.52;;;;;;;;;;9933920;28;20054;-66
2022/08/18 13:55:27;;;;;;;2.13;0.60;;;;;;;;;;9941517;28;20053;-65
2022/08/18 14:00:22;;;;;;;1.35;1.15;;;;;;;;;;9947204;28;20046;-64
2022/08/18 14:05:23;;;;;;;1.23;0.80;;;;;;;;;;9926093;28;20051;-65
2022/08/18 14:10:37;;;;;;;5.45;1.02;;;;;;;;;;9939433;28;20101;-65
2022/08/18 14:15:35;;;;;;;1.38;0.90;;;;;;;;;;9933344;28;20561;-65
2022/08/18 14:30:56;;;;;;;3.20;0.80;;;;;;;;;;9956480;28;20401;-67
2022/08/18 14:35:51;;;;;;;2.72;0.90;;;;;;;;;;9945914;28;20059;-65
2022/08/18 14:41:01;;;;;;;1.02;0.77;;;;;;;;;;9943879;28;20059;-65
2022/08/18 14:45:58;;;;;;;2.10;0.80;;;;;;;;;;9936866;28;20105;-63
2022/08/18 14:50:54;;;;;;;1.00;0.80;;;;;;;;;;9949608;28;20046;-64
2022/08/18 14:55:51;;;;;;;1.48;0.88;;;;;;;;;;9928867;28;20413;-65
2022/08/18 15:00:44;;;;;;;0.82;0.70;;;;;;;;;;9949078;28;20043;-66
2022/08/18 15:05:46;;;;;;;0.90;0.90;;;;;;;;;;9934896;28;20138;-63
2022/08/18 15:10:40;;;;;;;1.45;1.05;;;;;;;;;;9934910;28;20081;-63
2022/08/18 15:15:33;;;;;;;2.20;1.00;;;;;;;;;;9945982;28;20409;-65
2022/08/18 15:26:03;;;;;;;1.02;0.80;;;;;;;;;;9946393;28;20058;-63
2022/08/18 15:30:57;;;;;;;1.73;0.88;;;;;;;;;;9938293;28;20043;-64
2022/08/18 15:36:13;;;;;;;1.58;0.80;;;;;;;;;;9940367;28;20134;-62
2022/08/18 15:41:08;;;;;;;1.23;1.10;;;;;;;;;;9933372;28;20065;-64
2022/08/18 15:46:04;;;;;;;1.05;1.05;;;;;;;;;;9933815;28;20568;-62
2022/08/18 15:51:04;;;;;;;2.40;0.80;;;;;;;;;;9936791;28;20065;-64
2022/08/18 15:56:05;;;;;;;1.70;0.60;;;;;;;;;;9940892;28;20055;-60
2022/08/18 16:00:59;;;;;;;1.05;1.00;;;;;;;;;;9942421;28;20047;-61
2022/08/18 16:06:18;;;;;;;0.90;0.90;;;;;;;;;;9937402;28;20047;-62
2022/08/18 16:11:12;;;;;;;0.90;0.90;;;;;;;;;;9943662;28;20134;-62
2022/08/18 16:16:23;;;;;;;1.48;1.02;;;;;;;;;;9936846;28;20202;-61
2022/08/18 16:21:28;;;;;;;2.42;1.30;;;;;;;;;;9944339;28;20437;-64
2022/08/18 16:26:21;;;;;;;3.63;1.17;;;;;;;;;;9929786;28;21169;-61
2022/08/18 16:31:15;;;;;;;1.10;1.00;;;;;;;;;;9924690;28;20047;-63
2022/08/18 16:36:12;;;;;;;4.63;1.20;;;;;;;;;;9940447;28;20070;-61
2022/08/18 16:41:07;;;;;;;1.20;1.10;;;;;;;;;;9942689;28;20140;-63
2022/08/18 16:46:31;;;;;;;2.50;1.50;;;;;;;;;;9938925;28;20102;-61
2022/08/18 16:51:27;;;;;;;4.38;2.47;;;;;;;;;;9939827;28;20054;-61
2022/08/18 16:56:28;;;;;;;3.20;2.90;;;;;;;;;;9941395;28;20284;-62
2022/08/18 17:06:42;;;;;;;4.72;2.70;;;;;;;;;;9936984;28;20417;-59
2022/08/18 17:11:40;;;;;;;2.83;2.63;;;;;;;;;;9941075;28;20050;-61
2022/08/18 17:16:45;;;;;;;2.30;2.10;;;;;;;;;;9937629;28;20062;-60
2022/08/18 17:21:39;;;;;;;2.67;1.95;;;;;;;;;;9931909;28;20051;-60
2022/08/18 17:27:01;;;;;;;4.60;2.88;;;;;;;;;;9940596;28;20146;-61
2022/08/18 17:32:06;;;;;;;4.30;2.40;;;;;;;;;;9934735;28;20094;-60
2022/08/18 17:37:01;;;;;;;2.70;2.40;;;;;;;;;;9938690;28;20051;-60
2022/08/18 17:47:10;;;;;;;5.47;2.50;;;;;;;;;;9942250;28;20402;-60
2022/08/18 17:52:04;;;;;;;4.90;3.38;;;;;;;;;;9936588;28;20047;-60
2022/08/18 17:57:13;;;;;;;2.75;2.47;;;;;;;;;;9926568;28;20063;-61
2022/08/18 18:02:32;;;;;;;6.20;3.45;;;;;;;;;;9943544;28;20110;-62
2022/08/18 18:07:36;;;;;;;3.53;2.97;;;;;;;;;;9949130;28;20093;-63
2022/08/18 18:12:33;;;;;;;4.07;3.50;;;;;;;;;;9943011;28;20061;-61
2022/08/18 18:17:31;;;;;;;5.80;5.07;;;;;;;;;;9948087;28;20508;-61
2022/08/18 18:22:27;;;;;;;4.90;3.20;;;;;;;;;;9936004;28;20457;-61
2022/08/18 18:27:30;;;;;;;6.43;4.50;;;;;;;;;;9947909;28;20153;-61
2022/08/18 18:32:28;;;;;;;4.00;3.22;;;;;;;;;;9943432;28;20561;-61
2022/08/18 18:37:31;;;;;;;5.25;3.83;;;;;;;;;;9947967;28;20084;-61
2022/08/18 18:42:27;;;;;;;3.80;3.50;;;;;;;;;;9944123;28;20101;-61
2022/08/18 18:47:24;;;;;;;5.75;3.42;;;;;;;;;;9948534;28;20057;-61
2022/08/18 18:52:22;;;;;;;4.65;3.13;;;;;;;;;;9944045;28;20043;-61
2022/08/18 18:57:26;;;;;;;9.30;4.72;;;;;;;;;;9940673;28;20081;-60
2022/08/18 19:02:35;;;;;;;5.63;3.92;;;;;;;;;;9935054;28;20039;-61
2022/08/18 19:08:17;;;;;;;3.95;3.55;;;;;;;;;;9932694;28;20051;-60
2022/08/18 19:13:32;;;;;;;6.03;4.70;;;;;;;;;;9923860;28;20482;-59
2022/08/18 19:18:27;;;;;;;4.95;3.75;;;;;;;;;;9938187;28;20047;-62
2022/08/18 19:23:38;;;;;;;4.93;4.53;;;;;;;;;;9934493;28;20146;-61
2022/08/18 19:28:44;;;;;;;6.75;5.18;;;;;;;;;;9942800;28;20055;-62
2022/08/18 19:34:06;;;;;;;6.05;5.57;;;;;;;;;;9944689;28;20051;-61
2022/08/18 19:39:49;;;;;;;7.32;6.72;;;;;;;;;;9932734;28;20055;-61
2022/08/18 19:44:56;;;;;;;7.90;7.10;;;;;;;;;;9893792;28;20110;-59
2022/08/18 19:50:45;;;;;;;7.20;6.50;;;;;;;;;;9948954;28;20692;-59
2022/08/18 19:55:54;;;;;;;10.35;7.47;;;;;;;;;;9946919;28;20490;-59
2022/08/18 20:00:53;;;;;;;;;;;;;;;;;;9938659;28;20067;-59
2022/08/18 20:06:10;;;;;;;7.28;6.68;;;;;;;;;;9931359;28;19922;-59
2022/08/18 20:11:39;;;;;;;8.45;7.75;;;;;;;;;;9947231;28;20157;-59
2022/08/18 20:16:36;;;;;;;21.30;10.32;;;;;;;;;;9945718;28;20055;-58
2022/08/18 20:21:46;;;;;;;13.98;8.93;;;;;;;;;;9936963;28;20074;-60
2022/08/18 20:26:47;;;;;;;15.55;8.10;;;;;;;;;;9940547;28;20082;-62
2022/08/18 20:31:49;;;;;;;9.07;7.35;;;;;;;;;;9938452;28;20412;-59
2022/08/18 20:36:45;;;;;;;10.52;8.88;;;;;;;;;;9939087;28;20414;-59
2022/08/18 20:41:49;;;;;;;9.60;8.88;;;;;;;;;;9936197;28;20063;-60
2022/08/18 20:46:48;;;;;;;9.20;8.00;;;;;;;;;;9929847;28;20055;-58
2022/08/18 20:51:48;;;;;;;11.98;8.25;;;;;;;;;;9941092;28;20051;-60
2022/08/18 20:56:49;;;;;;;8.85;7.95;;;;;;;;;;9944668;28;20055;-62
2022/08/18 21:02:15;;;;;;;9.10;8.18;;;;;;;;;;9927175;28;20065;-60
2022/08/18 21:07:16;;;;;;;10.60;9.07;;;;;;;;;;9936045;28;20051;-61
2022/08/18 21:12:29;;;;;;;9.25;8.45;;;;;;;;;;9947166;28;20498;-62
2022/08/18 21:17:25;;;;;;;9.57;8.68;;;;;;;;;;9945968;28;21019;-61
2022/08/18 21:22:19;;;;;;;9.57;8.68;;;;;;;;;;9943723;28;20121;-62
2022/08/18 21:27:34;;;;;;;10.10;7.57;;;;;;;;;;9939814;28;20047;-61
2022/08/18 21:32:30;;;;;;;8.85;6.88;;;;;;;;;;9937909;28;20047;-61
2022/08/18 21:37:24;;;;;;;9.73;8.82;;;;;;;;;;9938384;28;20047;-61
2022/08/18 21:42:26;;;;;;;9.23;8.32;;;;;;;;;;9934086;28;20054;-61
2022/08/18 21:47:28;;;;;;;8.20;7.50;;;;;;;;;;9947962;28;20058;-61
2022/08/18 21:52:25;;;;;;;8.82;7.80;;;;;;;;;;9930850;28;20051;-61
2022/08/18 21:57:24;;;;;;;12.00;8.25;;;;;;;;;;9943738;28;20414;-61
2022/08/18 22:02:20;;;;;;;9.38;8.63;;;;;;;;;;9933323;28;20133;-60
2022/08/18 22:07:14;;;;;;;9.98;9.10;;;;;;;;;;9928160;28;20062;-60
2022/08/18 22:17:53;;;;;;;11.40;10.45;;;;;;;;;;9927664;28;20065;-60
2022/08/18 22:28:50;;;;;;;9.52;8.75;;;;;;;;;;9921339;28;20413;-59
2022/08/18 22:33:45;;;;;;;10.98;9.88;;;;;;;;;;9930505;28;20089;-60
2022/08/18 22:39:18;;;;;;;9.63;8.73;;;;;;;;;;9933760;28;20051;-60
2022/08/18 22:44:12;;;;;;;10.45;9.52;;;;;;;;;;9933732;28;20093;-60
2022/08/18 22:49:05;;;;;;;17.00;10.38;;;;;;;;;;9940023;28;20053;-60
2022/08/18 22:53:59;;;;;;;11.23;10.13;;;;;;;;;;9922142;28;20051;-60
2022/08/18 22:58:55;;;;;;;12.68;11.57;;;;;;;;;;9942199;28;20059;-59
2022/08/18 23:03:51;;;;;;;15.20;10.43;;;;;;;;;;9926755;28;20561;-60
2022/08/18 23:08:44;;;;;;;12.40;11.23;;;;;;;;;;9928137;28;20043;-60
2022/08/18 23:13:48;;;;;;;11.75;10.75;;;;;;;;;;9935679;28;20506;-60
2022/08/18 23:18:42;;;;;;;11.63;10.57;;;;;;;;;;9942971;28;20042;-60
2022/08/18 23:23:36;;;;;;;11.82;10.55;;;;;;;;;;9925301;28;20079;-60
2022/08/18 23:28:31;;;;;;;11.77;10.50;;;;;;;;;;9918183;28;20082;-60
2022/08/18 23:33:26;;;;;;;11.57;10.48;;;;;;;;;;9894939;28;20360;-60
2022/08/18 23:38:20;;;;;;;11.60;10.40;;;;;;;;;;9913943;28;20438;-60
2022/08/18 23:43:23;;;;;;;10.82;9.75;;;;;;;;;;9951804;28;20059;-60
2022/08/18 23:48:22;;;;;;;13.15;10.00;;;;;;;;;;9953301;28;20461;-60
2022/08/18 23:53:17;;;;;;;11.20;10.18;;;;;;;;;;9953595;28;20121;-60
2022/08/18 23:58:11;;;;;;;11.45;10.45;;;;;;;;;;9953663;28;20046;-60
